Time;durP1;ratioP1;P1;durP2;ratioP2;P2;SDS_P1;SDS_P2;PMS_P1;PMS_P2;Temp;Humidity;BMP_temperature;BMP_pressure;BME280_temperature;BME280_humidity;BME280_pressure;Samples;Min_cycle;Max_cycle;Signal;HPM_P1;HPM_P2
2023/12/18 00:01:24;;;;;;;18.63;6.50;;;;;;;-1.53;95.30;102510.63;4940758;29;20503;-83
2023/12/18 00:03:51;;;;;;;31.02;7.32;;;;;;;-1.56;95.14;102507.84;4940738;29;20052;-84
2023/12/18 00:06:18;;;;;;;19.17;7.10;;;;;;;-1.61;95.12;102510.13;4942498;29;20052;-84
2023/12/18 00:08:45;;;;;;;17.83;6.75;;;;;;;-1.53;95.50;102509.75;4937175;29;20064;-83
2023/12/18 00:11:13;;;;;;;26.85;7.32;;;;;;;-1.57;95.47;102503.47;4940330;29;20059;-86
2023/12/18 00:13:41;;;;;;;32.63;8.23;;;;;;;-1.60;95.12;102504.16;4937129;29;20074;-86
2023/12/18 00:16:08;;;;;;;18.35;7.25;;;;;;;-1.54;95.70;102497.66;4939687;29;20136;-86
2023/12/18 00:18:35;;;;;;;17.48;7.57;;;;;;;-1.50;95.46;102494.50;4937960;29;20051;-83
2023/12/18 00:21:03;;;;;;;18.50;7.85;;;;;;;-1.44;95.56;102490.63;4935703;29;20040;-85
2023/12/18 00:23:30;;;;;;;19.65;7.43;;;;;;;-1.49;95.53;102484.28;4939708;29;20059;-87
2023/12/18 00:25:57;;;;;;;15.07;6.80;;;;;;;-1.38;95.68;102481.53;4938704;29;20154;-85
2023/12/18 00:28:24;;;;;;;13.13;6.82;;;;;;;-1.37;95.41;102479.06;4921650;29;20066;-86
2023/12/18 00:30:51;;;;;;;16.08;7.57;;;;;;;-1.40;95.39;102478.84;4936798;29;20051;-86
2023/12/18 00:33:17;;;;;;;16.95;7.13;;;;;;;-1.46;95.25;102476.75;4942050;29;20200;-85
2023/12/18 00:35:45;;;;;;;22.05;7.53;;;;;;;-1.51;95.44;102462.66;4941206;29;20069;-84
2023/12/18 00:38:11;;;;;;;25.60;7.70;;;;;;;-1.52;95.49;102460.00;4925215;29;20054;-87
2023/12/18 00:40:38;;;;;;;17.27;7.03;;;;;;;-1.44;95.36;102454.56;4937191;29;20056;-84
2023/12/18 00:43:05;;;;;;;24.58;8.48;;;;;;;-1.58;95.46;102460.47;4941373;29;20051;-85
2023/12/18 00:45:32;;;;;;;21.48;7.82;;;;;;;-1.59;95.44;102453.56;4936945;29;20062;-84
2023/12/18 00:47:58;;;;;;;26.35;7.55;;;;;;;-1.58;95.50;102456.25;4939041;29;20147;-84
2023/12/18 00:50:25;;;;;;;20.50;7.40;;;;;;;-1.50;95.27;102459.31;4943581;29;20050;-84
2023/12/18 00:52:53;;;;;;;34.33;9.27;;;;;;;-1.52;95.39;102450.59;4939709;29;20112;-84
2023/12/18 00:55:19;;;;;;;22.27;7.70;;;;;;;-1.53;95.15;102453.97;4937935;29;20109;-85
2023/12/18 00:57:46;;;;;;;14.90;7.22;;;;;;;-1.45;95.63;102446.72;4940136;29;20054;-85
2023/12/18 01:00:19;;;;;;;20.48;7.93;;;;;;;-1.37;95.34;102460.13;4939700;29;20051;-86
2023/12/18 01:02:46;;;;;;;18.63;8.02;;;;;;;-1.37;95.33;102455.00;4939349;29;20054;-83
2023/12/18 01:05:14;;;;;;;17.35;7.65;;;;;;;-1.32;95.48;102458.75;4947100;29;20066;-84
2023/12/18 01:07:41;;;;;;;24.10;8.52;;;;;;;-1.34;95.72;102455.19;4944511;29;20509;-84
2023/12/18 01:10:08;;;;;;;29.17;7.93;;;;;;;-1.33;95.66;102450.13;4940786;28;20054;-84
2023/12/18 01:12:35;;;;;;;17.75;7.07;;;;;;;-1.27;95.49;102444.50;4945135;29;20058;-85
2023/12/18 01:15:03;;;;;;;27.23;8.13;;;;;;;-1.28;95.69;102445.28;4945355;29;20356;-86
2023/12/18 01:17:30;;;;;;;19.05;7.15;;;;;;;-1.26;95.51;102448.81;4928268;29;20088;-85
2023/12/18 01:20:03;;;;;;;27.15;8.15;;;;;;;-1.31;95.74;102447.66;4930823;29;20083;-85
2023/12/18 01:22:30;;;;;;;18.73;7.53;;;;;;;-1.29;95.88;102443.47;4936404;29;20062;-86
2023/12/18 01:24:57;;;;;;;22.65;8.50;;;;;;;-1.26;95.86;102443.69;4943780;29;20423;-84
2023/12/18 01:27:24;;;;;;;18.98;7.72;;;;;;;-1.16;95.67;102435.78;4937543;29;20051;-87
2023/12/18 01:29:51;;;;;;;15.52;7.25;;;;;;;-1.16;95.75;102437.44;4940223;29;20047;-85
2023/12/18 01:32:18;;;;;;;19.23;7.75;;;;;;;-1.21;95.56;102437.16;4938338;29;20062;-85
2023/12/18 01:34:45;;;;;;;25.77;7.88;;;;;;;-1.22;95.84;102440.50;4936763;29;20130;-84
2023/12/18 01:37:11;;;;;;;16.55;7.63;;;;;;;-1.15;95.66;102431.50;4927991;29;20077;-85
2023/12/18 01:39:38;;;;;;;14.75;7.35;;;;;;;-1.23;95.72;102433.59;4923765;29;20187;-88
2023/12/18 01:42:05;;;;;;;24.67;8.25;;;;;;;-1.20;95.49;102427.72;4938205;29;20083;-85
2023/12/18 01:44:32;;;;;;;18.35;7.72;;;;;;;-1.27;95.68;102431.59;4940833;29;20060;-84
2023/12/18 01:46:59;;;;;;;15.20;7.10;;;;;;;-1.32;95.70;102428.75;4941416;29;20066;-84
2023/12/18 01:49:25;;;;;;;17.02;7.28;;;;;;;-1.35;95.91;102427.63;4939924;29;20159;-84
2023/12/18 01:51:52;;;;;;;24.65;7.82;;;;;;;-1.33;95.85;102431.19;4941099;29;20083;-86
2023/12/18 01:54:22;;;;;;;15.32;7.38;;;;;;;-1.33;95.87;102431.19;4941471;29;20054;-84
2023/12/18 01:56:51;;;;;;;15.52;7.25;;;;;;;-1.24;95.86;102422.38;4921892;29;20138;-87
2023/12/18 01:59:18;;;;;;;17.67;7.38;;;;;;;-1.22;95.88;102422.47;4919438;29;20061;-83
2023/12/18 02:01:45;;;;;;;22.73;7.68;;;;;;;-1.24;95.91;102421.50;4920691;29;20110;-84
2023/12/18 02:04:13;;;;;;;15.98;7.50;;;;;;;-1.23;95.72;102416.44;4919060;29;20064;-85
2023/12/18 02:06:41;;;;;;;16.08;7.43;;;;;;;-1.23;95.81;102426.75;4941267;29;20078;-84
2023/12/18 02:09:09;;;;;;;16.88;8.40;;;;;;;-1.18;95.94;102421.88;4919506;29;20044;-84
2023/12/18 02:11:35;;;;;;;16.02;6.85;;;;;;;-1.15;95.82;102427.22;4933920;29;20043;-83
2023/12/18 02:14:02;;;;;;;21.90;7.97;;;;;;;-1.08;95.71;102432.00;4921230;29;20052;-85
2023/12/18 02:16:29;;;;;;;18.05;7.78;;;;;;;-1.11;95.81;102426.66;4941311;29;20055;-83
2023/12/18 02:18:56;;;;;;;13.15;6.47;;;;;;;-1.14;95.69;102423.00;4920629;29;20047;-88
2023/12/18 02:21:23;;;;;;;17.50;7.53;;;;;;;-1.18;95.68;102416.72;4924123;29;20055;-88
2023/12/18 02:23:50;;;;;;;17.58;7.97;;;;;;;-1.12;95.63;102424.84;4943268;29;20063;-83
2023/12/18 02:26:17;;;;;;;18.25;7.38;;;;;;;-1.16;95.66;102420.31;4940968;29;20051;-85
2023/12/18 02:28:44;;;;;;;17.95;7.47;;;;;;;-1.22;95.72;102412.16;4937517;29;20063;-84
2023/12/18 02:31:13;;;;;;;21.27;7.70;;;;;;;-1.16;95.77;102415.16;4945143;29;20058;-87
2023/12/18 02:33:41;;;;;;;21.90;7.50;;;;;;;-1.20;95.55;102407.13;4940517;29;20067;-84
2023/12/18 02:36:08;;;;;;;17.50;8.18;;;;;;;-1.21;95.42;102415.66;4943491;29;20114;-84
2023/12/18 02:38:35;;;;;;;23.23;8.10;;;;;;;-1.28;95.60;102420.38;4921386;29;20048;-86
2023/12/18 02:41:01;;;;;;;15.93;7.13;;;;;;;-1.26;95.62;102412.75;4942308;29;20047;-89
2023/12/18 02:43:28;;;;;;;15.43;7.38;;;;;;;-1.29;95.74;102416.06;4942223;29;20134;-86
2023/12/18 02:45:55;;;;;;;42.80;7.78;;;;;;;-1.34;95.55;102417.44;4940230;29;20055;-83
2023/12/18 02:48:22;;;;;;;18.85;7.35;;;;;;;-1.29;95.59;102407.41;4938276;29;20082;-85
2023/12/18 02:50:49;;;;;;;18.70;7.40;;;;;;;-1.33;95.46;102402.84;4940222;29;20043;-89
2023/12/18 02:53:17;;;;;;;20.40;7.88;;;;;;;-1.35;95.60;102410.47;4940165;29;20126;-86
2023/12/18 02:55:44;;;;;;;26.85;8.55;;;;;;;-1.34;95.55;102424.28;4938895;29;20060;-83
2023/12/18 02:58:12;;;;;;;18.65;7.53;;;;;;;-1.34;95.73;102414.84;4941979;29;20051;-86
2023/12/18 03:00:38;;;;;;;20.17;7.40;;;;;;;-1.36;95.74;102411.28;4937823;29;20051;-88
2023/12/18 03:03:05;;;;;;;18.20;7.15;;;;;;;-1.40;95.61;102399.88;4936178;29;20087;-83
2023/12/18 03:05:32;;;;;;;27.17;8.13;;;;;;;-1.43;95.57;102410.00;4938190;29;20056;-84
2023/12/18 03:07:59;;;;;;;21.35;7.28;;;;;;;-1.43;95.82;102410.00;4941387;29;20052;-89
2023/12/18 03:10:26;;;;;;;16.75;7.50;;;;;;;-1.35;95.50;102397.59;4940171;29;20058;-87
2023/12/18 03:12:53;;;;;;;26.48;8.40;;;;;;;-1.38;95.61;102397.41;4938745;29;20058;-84
2023/12/18 03:15:20;;;;;;;15.15;7.60;;;;;;;-1.32;95.55;102397.81;4924301;29;20317;-83
2023/12/18 03:17:47;;;;;;;20.65;7.07;;;;;;;-1.39;95.62;102390.50;4925056;29;20059;-83
2023/12/18 03:20:14;;;;;;;24.50;7.63;;;;;;;-1.37;95.75;102398.31;4942657;29;20048;-83
2023/12/18 03:22:40;;;;;;;15.30;7.20;;;;;;;-1.32;96.00;102399.50;4940827;28;20062;-87
2023/12/18 03:25:08;;;;;;;18.35;7.35;;;;;;;-1.33;95.63;102395.13;4938887;28;20054;-82
2023/12/18 03:27:34;;;;;;;17.50;7.43;;;;;;;-1.34;95.37;102393.34;4939088;29;20051;-84
2023/12/18 03:30:02;;;;;;;30.13;7.32;;;;;;;-1.35;95.59;102381.25;4939631;29;20162;-83
2023/12/18 03:32:28;;;;;;;22.13;7.82;;;;;;;-1.33;95.62;102385.72;4937163;29;20081;-85
2023/12/18 03:34:55;;;;;;;21.25;7.80;;;;;;;-1.31;95.60;102390.97;4925107;29;20063;-84
2023/12/18 03:37:22;;;;;;;20.50;7.65;;;;;;;-1.31;95.71;102393.56;4942929;29;20056;-84
2023/12/18 03:39:49;;;;;;;23.92;8.55;;;;;;;-1.29;95.75;102387.72;4939645;29;20070;-85
2023/12/18 03:42:16;;;;;;;29.65;8.35;;;;;;;-1.29;95.76;102385.13;4928193;29;20086;-83
2023/12/18 03:44:43;;;;;;;29.60;8.45;;;;;;;-1.34;95.74;102389.09;4945488;29;20051;-85
2023/12/18 03:47:10;;;;;;;28.13;8.38;;;;;;;-1.27;95.90;102387.81;4930491;29;20051;-83
2023/12/18 03:49:37;;;;;;;23.65;8.35;;;;;;;-1.25;96.02;102391.38;4941392;29;20118;-84
2023/12/18 03:52:04;;;;;;;29.52;8.20;;;;;;;-1.13;95.87;102387.00;4941265;29;20051;-85
2023/12/18 03:54:31;;;;;;;23.00;8.07;;;;;;;-1.20;96.03;102387.41;4922238;29;20067;-86
2023/12/18 03:56:58;;;;;;;23.90;8.32;;;;;;;-1.17;95.93;102381.53;4936519;29;20079;-89
2023/12/18 03:59:25;;;;;;;19.42;8.27;;;;;;;-1.22;95.90;102376.09;4937222;29;20055;-84
2023/12/18 04:01:51;;;;;;;33.53;8.43;;;;;;;-1.18;95.84;102382.34;4925822;29;20057;-83
2023/12/18 04:04:18;;;;;;;24.63;8.27;;;;;;;-1.16;95.94;102379.09;4935706;29;20588;-84
2023/12/18 04:06:45;;;;;;;26.63;8.65;;;;;;;-1.16;96.01;102378.19;4939363;29;20053;-86
2023/12/18 04:09:12;;;;;;;22.75;8.27;;;;;;;-1.18;95.87;102385.81;4924540;29;20063;-84
2023/12/18 04:11:39;;;;;;;22.77;8.38;;;;;;;-1.14;95.88;102374.03;4920196;29;20051;-86
2023/12/18 04:14:06;;;;;;;19.33;8.40;;;;;;;-1.09;96.00;102376.06;4939907;29;20098;-86
2023/12/18 04:16:33;;;;;;;18.00;8.40;;;;;;;-1.03;95.71;102385.00;4943231;29;20133;-85
2023/12/18 04:18:59;;;;;;;17.98;8.10;;;;;;;-1.01;96.09;102384.31;4922812;29;20050;-84
2023/12/18 04:21:26;;;;;;;20.58;8.25;;;;;;;-0.97;95.69;102386.31;4934839;29;20047;-84
2023/12/18 04:23:53;;;;;;;19.83;8.65;;;;;;;-0.93;95.16;102379.63;4932064;29;20056;-87
2023/12/18 04:26:20;;;;;;;21.02;8.88;;;;;;;-0.98;95.76;102383.63;4931626;29;20090;-83
2023/12/18 04:28:48;;;;;;;21.23;8.27;;;;;;;-0.97;95.25;102380.22;4935928;29;20047;-83
2023/12/18 04:31:19;;;;;;;22.10;8.38;;;;;;;-0.97;95.41;102375.06;4913085;29;20134;-83
2023/12/18 04:33:46;;;;;;;16.33;8.32;;;;;;;-0.94;95.09;102364.94;4938578;29;20134;-85
2023/12/18 04:36:13;;;;;;;25.10;8.77;;;;;;;-0.89;95.18;102371.31;4930268;29;20059;-84
2023/12/18 04:38:42;;;;;;;17.70;8.30;;;;;;;-0.92;95.22;102368.53;4938455;29;20217;-83
2023/12/18 04:41:22;;;;;;;18.73;7.85;;;;;;;-0.94;95.12;102380.41;4940997;28;20172;-83
2023/12/18 04:43:50;;;;;;;25.67;8.35;;;;;;;-0.90;95.22;102377.25;4937918;29;20051;-86
2023/12/18 04:46:17;;;;;;;18.70;8.40;;;;;;;-0.90;94.99;102388.47;4933381;29;20484;-84
2023/12/18 04:48:44;;;;;;;16.55;8.27;;;;;;;-0.91;95.21;102380.63;4950081;29;20499;-85
2023/12/18 04:51:11;;;;;;;18.35;8.05;;;;;;;-0.92;95.03;102373.69;4942535;29;20081;-84
2023/12/18 04:53:40;;;;;;;12.50;6.60;;;;;;;-0.91;94.96;102390.94;4930944;29;20051;-86
2023/12/18 04:56:07;;;;;;;18.30;7.75;;;;;;;-0.94;95.14;102390.72;4938255;29;20054;-83
2023/12/18 04:58:35;;;;;;;17.30;8.35;;;;;;;-0.93;95.00;102384.78;4944165;29;20078;-84
2023/12/18 05:01:03;;;;;;;14.05;7.10;;;;;;;-0.94;94.93;102378.75;4931115;29;20054;-85
2023/12/18 05:03:30;;;;;;;15.57;8.15;;;;;;;-0.96;94.96;102382.03;4937945;29;20487;-84
2023/12/18 05:05:57;;;;;;;15.15;7.40;;;;;;;-0.93;94.83;102377.06;4942697;29;20061;-84
2023/12/18 05:08:24;;;;;;;14.07;7.20;;;;;;;-0.91;94.77;102378.06;4935458;29;20107;-87
2023/12/18 05:10:51;;;;;;;22.85;8.52;;;;;;;-0.97;94.67;102380.22;4927560;29;20044;-83
2023/12/18 05:13:20;;;;;;;15.93;8.18;;;;;;;-0.97;94.55;102387.97;4925456;29;20050;-83
2023/12/18 05:15:51;;;;;;;18.90;8.38;;;;;;;-1.01;94.53;102389.47;4942868;29;20086;-83
2023/12/18 05:18:18;;;;;;;16.67;7.55;;;;;;;-0.96;94.55;102384.59;4941095;29;20055;-83
2023/12/18 05:20:46;;;;;;;17.08;8.48;;;;;;;-0.96;94.50;102397.50;4944680;29;20419;-84
2023/12/18 05:23:13;;;;;;;23.40;8.98;;;;;;;-1.01;94.35;102393.72;4933070;29;20060;-85
2023/12/18 05:25:39;;;;;;;19.60;7.97;;;;;;;-1.08;94.55;102388.19;4937322;29;20085;-84
2023/12/18 05:28:06;;;;;;;13.60;7.13;;;;;;;-1.01;94.52;102394.63;4942776;29;20055;-84
2023/12/18 05:30:34;;;;;;;12.98;6.38;;;;;;;-0.93;94.48;102387.38;4936967;29;20059;-86
2023/12/18 05:33:02;;;;;;;16.85;8.75;;;;;;;-0.91;94.46;102386.69;4936607;29;20055;-91
2023/12/18 05:35:29;;;;;;;18.17;7.90;;;;;;;-1.02;94.54;102386.81;4923315;29;20130;-86
2023/12/18 05:37:56;;;;;;;16.17;8.77;;;;;;;-1.06;94.59;102384.03;4930155;29;20047;-88
2023/12/18 05:40:24;;;;;;;16.70;8.20;;;;;;;-1.03;94.66;102390.16;4936749;29;20054;-87
2023/12/18 05:42:52;;;;;;;16.77;6.97;;;;;;;-1.05;94.69;102387.50;4937774;29;20048;-85
2023/12/18 05:45:19;;;;;;;14.27;6.82;;;;;;;-1.07;94.63;102387.41;4938331;29;20044;-88
2023/12/18 05:47:46;;;;;;;17.40;7.18;;;;;;;-1.03;94.77;102392.75;4941905;29;20047;-84
2023/12/18 05:50:14;;;;;;;14.02;7.43;;;;;;;-1.04;94.58;102389.28;4952030;29;20081;-84
2023/12/18 05:52:41;;;;;;;16.38;6.72;;;;;;;-1.00;94.47;102392.94;4956670;29;20090;-87
2023/12/18 05:55:11;;;;;;;19.45;8.13;;;;;;;-1.00;94.45;102386.13;4943864;29;20052;-84
2023/12/18 05:57:38;;;;;;;16.95;6.07;;;;;;;-0.98;94.45;102389.66;4943760;29;20055;-84
2023/12/18 06:00:06;;;;;;;21.23;8.43;;;;;;;-1.04;94.54;102389.28;4940166;28;20057;-84
2023/12/18 06:02:33;;;;;;;21.85;7.50;;;;;;;-0.98;94.56;102394.81;4930314;29;20123;-85
2023/12/18 06:05:00;;;;;;;10.45;6.05;;;;;;;-0.92;94.38;102397.78;4945695;29;20048;-84
2023/12/18 06:07:27;;;;;;;17.20;6.90;;;;;;;-0.92;94.37;102407.19;4944701;29;20102;-84
2023/12/18 06:09:56;;;;;;;18.30;7.82;;;;;;;-0.96;94.27;102398.38;4947974;28;20055;-85
2023/12/18 06:12:23;;;;;;;19.75;7.22;;;;;;;-0.96;94.44;102402.66;4955901;28;20054;-85
2023/12/18 06:14:50;;;;;;;21.73;8.10;;;;;;;-0.95;94.32;102404.44;4928747;29;20063;-85
2023/12/18 06:17:17;;;;;;;19.88;7.22;;;;;;;-0.95;94.58;102404.44;4944913;29;20106;-85
2023/12/18 06:19:45;;;;;;;17.02;7.35;;;;;;;-0.95;94.80;102400.16;4930504;29;20044;-86
2023/12/18 06:22:12;;;;;;;22.92;8.07;;;;;;;-0.99;94.72;102402.47;4943661;29;20053;-89
2023/12/18 06:24:39;;;;;;;21.70;7.53;;;;;;;-1.03;94.40;102395.31;4940579;29;20066;-86
2023/12/18 06:27:06;;;;;;;23.05;6.90;;;;;;;-1.06;94.85;102398.59;4942593;29;20056;-85
2023/12/18 06:29:33;;;;;;;20.40;7.18;;;;;;;-1.05;94.99;102392.66;4942565;29;20058;-84
2023/12/18 06:32:00;;;;;;;14.88;7.05;;;;;;;-1.00;94.94;102395.50;4944196;29;20048;-84
2023/12/18 06:34:28;;;;;;;18.60;8.05;;;;;;;-1.03;95.12;102391.03;4949768;28;20051;-84
2023/12/18 06:36:55;;;;;;;16.35;7.13;;;;;;;-1.02;95.19;102382.53;4947407;28;20055;-83
2023/12/18 06:39:21;;;;;;;18.75;8.52;;;;;;;-0.98;95.31;102381.03;4942576;29;20061;-85
2023/12/18 06:41:50;;;;;;;21.88;8.60;;;;;;;-0.97;95.43;102385.38;4949543;29;20070;-85
2023/12/18 06:44:17;;;;;;;20.50;9.50;;;;;;;-0.95;95.52;102386.41;4949684;29;20047;-84
2023/12/18 06:46:43;;;;;;;23.38;9.93;;;;;;;-0.95;95.62;102394.13;4943810;28;20150;-85
2023/12/18 06:49:10;;;;;;;24.10;9.05;;;;;;;-0.93;95.66;102395.09;4943271;29;20051;-85
2023/12/18 06:51:37;;;;;;;25.00;9.90;;;;;;;-0.94;95.73;102385.56;4942364;29;20057;-84
2023/12/18 06:54:04;;;;;;;25.55;10.48;;;;;;;-0.94;95.62;102391.66;4949922;28;20054;-87
2023/12/18 06:56:32;;;;;;;24.65;9.50;;;;;;;-0.94;95.92;102385.56;4942607;29;20052;-86
2023/12/18 06:59:02;;;;;;;21.85;10.13;;;;;;;-0.93;95.72;102390.84;4934584;29;20063;-86
2023/12/18 07:01:28;;;;;;;26.23;9.57;;;;;;;-0.97;95.52;102391.44;4933727;29;20064;-89
2023/12/18 07:03:56;;;;;;;18.05;9.50;;;;;;;-0.98;95.76;102384.50;4936334;28;20060;-87
2023/12/18 07:06:24;;;;;;;20.90;10.13;;;;;;;-1.00;95.76;102385.19;4951476;29;20083;-86
2023/12/18 07:08:50;;;;;;;34.13;10.68;;;;;;;-1.02;95.96;102391.94;4939429;29;20039;-88
2023/12/18 07:11:17;;;;;;;22.92;9.43;;;;;;;-1.02;96.02;102391.94;4940691;29;20047;-86
2023/12/18 07:13:44;;;;;;;24.40;9.90;;;;;;;-1.02;95.91;102398.00;4941092;29;20062;-86
2023/12/18 07:16:19;;;;;;;26.60;10.10;;;;;;;-1.03;95.89;102400.47;4942693;29;20051;-85
2023/12/18 07:18:46;;;;;;;22.35;9.32;;;;;;;-1.06;95.81;102396.91;4940416;29;20062;-88
2023/12/18 07:21:13;;;;;;;22.77;9.75;;;;;;;-1.07;95.91;102402.84;4929837;29;20044;-88
2023/12/18 07:23:40;;;;;;;20.15;9.35;;;;;;;-1.11;95.65;102408.59;4935252;29;20052;-86
2023/12/18 07:26:11;;;;;;;29.55;9.93;;;;;;;-1.15;96.08;102406.63;4932661;29;20047;-86
2023/12/18 07:28:42;;;;;;;28.95;10.20;;;;;;;-1.14;95.89;102403.25;4934148;29;20083;-86
2023/12/18 07:31:09;;;;;;;24.15;9.60;;;;;;;-1.17;95.96;102403.06;4936221;29;20059;-87
2023/12/18 07:33:36;;;;;;;18.85;9.38;;;;;;;-1.12;95.96;102401.66;4936566;29;20048;-86
2023/12/18 07:36:04;;;;;;;25.13;9.93;;;;;;;-1.12;96.17;102401.66;4914425;29;20056;-90
2023/12/18 07:38:31;;;;;;;20.42;9.32;;;;;;;-1.14;96.08;102395.53;4915501;29;20075;-86
2023/12/18 07:40:59;;;;;;;21.33;8.77;;;;;;;-1.06;96.15;102391.75;4936764;29;20055;-86
2023/12/18 07:43:25;;;;;;;20.65;9.15;;;;;;;-0.99;95.92;102399.88;4935491;29;20062;-88
2023/12/18 07:45:52;;;;;;;22.05;9.57;;;;;;;-0.99;95.91;102393.03;4937399;29;20056;-85
2023/12/18 07:48:21;;;;;;;19.83;8.95;;;;;;;-1.00;96.00;102391.25;4934968;29;20051;-86
2023/12/18 07:50:49;;;;;;;24.48;9.30;;;;;;;-0.93;96.03;102384.78;4927491;29;20075;-87
2023/12/18 07:55:15;;;;;;;19.35;9.35;;;;;;;-0.94;96.04;102383.91;5126741;27;20152;-86
2023/12/18 07:57:42;;;;;;;20.83;9.65;;;;;;;-0.96;95.54;102382.91;5118136;27;20044;-88
2023/12/18 08:00:10;;;;;;;19.08;9.35;;;;;;;-0.91;95.92;102383.22;5116386;28;20043;-86
2023/12/18 08:02:37;;;;;;;22.58;10.23;;;;;;;-0.90;96.02;102384.97;5108473;28;20044;-86
2023/12/18 08:05:03;;;;;;;22.33;9.20;;;;;;;-0.92;95.88;102384.88;5112982;28;20055;-85
2023/12/18 08:07:31;;;;;;;21.15;9.98;;;;;;;-0.89;95.97;102379.03;5117754;27;20046;-88
2023/12/18 08:09:57;;;;;;;22.60;9.90;;;;;;;-0.90;95.87;102377.25;5092001;28;20052;-86
2023/12/18 08:12:25;;;;;;;20.33;9.95;;;;;;;-1.00;95.88;102370.66;5114872;28;20055;-85
2023/12/18 08:14:54;;;;;;;24.90;10.63;;;;;;;-0.97;95.72;102370.84;5121947;28;20047;-86
2023/12/18 08:17:21;;;;;;;21.10;9.82;;;;;;;-0.97;95.64;102376.00;5116246;28;20058;-86
2023/12/18 08:19:48;;;;;;;20.17;9.30;;;;;;;-0.95;95.37;102371.81;5119070;28;20047;-85
2023/12/18 08:22:15;;;;;;;18.20;9.27;;;;;;;-1.12;95.72;102370.72;5123241;28;20054;-86
2023/12/18 08:24:43;;;;;;;19.25;9.15;;;;;;;-1.15;95.44;102367.09;5112272;27;20059;-86
2023/12/18 08:27:10;;;;;;;18.83;9.02;;;;;;;-1.16;95.67;102355.91;5098113;28;20052;-85
2023/12/18 08:29:39;;;;;;;19.05;8.88;;;;;;;-1.09;95.71;102352.88;5107990;28;20048;-86
2023/12/18 08:32:06;;;;;;;20.67;9.55;;;;;;;-1.21;95.54;102362.44;5119673;27;20048;-87
2023/12/18 08:34:34;;;;;;;21.08;9.85;;;;;;;-1.17;95.67;102356.69;5112337;28;20044;-84
2023/12/18 08:37:01;;;;;;;22.00;9.88;;;;;;;-1.20;95.51;102360.72;5100258;28;20039;-85
2023/12/18 08:39:27;;;;;;;25.33;10.32;;;;;;;-1.12;95.55;102359.53;5113510;28;20055;-84
2023/12/18 08:41:54;;;;;;;21.42;9.90;;;;;;;-1.21;95.42;102353.81;5110629;28;20044;-84
2023/12/18 08:44:21;;;;;;;20.60;9.93;;;;;;;-1.22;95.40;102347.75;5122362;28;20065;-86
2023/12/18 08:46:48;;;;;;;19.52;9.82;;;;;;;-1.15;95.50;102354.19;5093753;28;20059;-85
2023/12/18 08:49:15;;;;;;;19.50;9.73;;;;;;;-1.11;95.19;102362.22;5109595;28;20047;-85
2023/12/18 08:51:43;;;;;;;19.80;9.52;;;;;;;-1.18;95.07;102367.78;5108877;28;20121;-85
2023/12/18 08:54:10;;;;;;;23.90;10.73;;;;;;;-1.09;95.24;102381.22;5091374;28;20068;-84
2023/12/18 08:56:37;;;;;;;18.27;9.18;;;;;;;-1.10;95.32;102371.75;5108376;28;20062;-84
2023/12/18 08:59:03;;;;;;;19.50;10.00;;;;;;;-1.06;95.07;102372.81;5093506;28;20063;-86
2023/12/18 09:01:31;;;;;;;18.75;8.95;;;;;;;-1.11;94.87;102379.38;5108092;28;20066;-84
2023/12/18 09:03:58;;;;;;;21.20;9.48;;;;;;;-1.07;95.02;102369.34;5089748;28;20080;-86
2023/12/18 09:06:25;;;;;;;18.55;9.63;;;;;;;-0.96;95.12;102370.00;5100974;28;20079;-86
2023/12/18 09:08:53;;;;;;;20.20;9.40;;;;;;;-1.02;94.78;102374.78;5106076;28;20070;-84
2023/12/18 09:11:19;;;;;;;18.48;9.18;;;;;;;-0.96;94.99;102382.03;5111534;28;20054;-86
2023/12/18 09:13:49;;;;;;;17.40;9.18;;;;;;;-0.92;94.94;102373.69;5085880;28;20052;-86
2023/12/18 09:16:16;;;;;;;19.42;8.98;;;;;;;-0.82;94.92;102370.91;5089281;28;20155;-85
2023/12/18 09:18:43;;;;;;;19.20;9.95;;;;;;;-0.80;94.75;102374.44;5099497;28;20113;-85
2023/12/18 09:21:10;;;;;;;18.70;8.57;;;;;;;-0.67;94.64;102364.91;5093363;28;20074;-85
2023/12/18 09:23:37;;;;;;;17.52;9.25;;;;;;;-0.67;94.62;102367.47;5102868;28;20040;-86
2023/12/18 09:26:05;;;;;;;16.50;8.48;;;;;;;-0.69;94.68;102367.38;5093637;28;20048;-87
2023/12/18 09:28:32;;;;;;;17.38;8.77;;;;;;;-0.77;94.58;102364.34;5092259;28;20052;-86
2023/12/18 09:30:59;;;;;;;16.38;9.15;;;;;;;-0.80;94.46;102361.56;5075388;28;20048;-86
2023/12/18 09:33:26;;;;;;;19.98;8.50;;;;;;;-0.82;94.44;102358.00;5105253;28;20047;-86
2023/12/18 09:35:53;;;;;;;19.75;9.70;;;;;;;-0.58;94.46;102360.28;5104773;28;20048;-86
2023/12/18 09:38:20;;;;;;;17.00;8.40;;;;;;;-0.57;94.42;102359.50;5075357;28;20048;-86
2023/12/18 09:40:47;;;;;;;18.90;8.82;;;;;;;-0.43;94.64;102356.09;5112165;28;20131;-86
2023/12/18 09:43:17;;;;;;;18.45;9.70;;;;;;;-0.49;94.29;102362.53;5091048;28;20072;-86
2023/12/18 09:45:48;;;;;;;20.05;9.27;;;;;;;-0.42;94.29;102347.56;5112083;28;20048;-86
2023/12/18 09:48:18;;;;;;;19.88;9.15;;;;;;;-0.33;94.27;102341.13;5114078;28;20055;-85
2023/12/18 09:50:45;;;;;;;14.95;8.43;;;;;;;-0.29;94.21;102337.94;5083165;28;20067;-86
2023/12/18 09:53:16;;;;;;;17.73;8.55;;;;;;;-0.23;94.54;102343.50;5105457;28;20502;-86
2023/12/18 09:55:44;;;;;;;19.60;9.52;;;;;;;-0.49;94.12;102340.25;5111103;28;20063;-85
2023/12/18 09:58:13;;;;;;;17.65;8.90;;;;;;;-0.37;94.17;102346.13;5073090;28;20073;-85
2023/12/18 10:00:40;;;;;;;13.68;8.05;;;;;;;-0.39;94.08;102345.16;5069915;28;20107;-86
2023/12/18 10:03:07;;;;;;;19.42;8.85;;;;;;;-0.36;94.16;102350.50;5102045;28;20056;-86
2023/12/18 10:05:35;;;;;;;23.80;9.57;;;;;;;-0.30;94.06;102341.34;5104837;28;20044;-85
2023/12/18 10:08:03;;;;;;;18.90;8.88;;;;;;;-0.24;93.94;102336.56;5104903;28;20055;-86
2023/12/18 10:10:29;;;;;;;15.63;8.18;;;;;;;-0.21;93.93;102336.72;5103609;28;20051;-86
2023/12/18 10:12:57;;;;;;;16.67;9.32;;;;;;;-0.11;93.86;102333.00;5106481;28;20138;-87
2023/12/18 10:15:24;;;;;;;17.95;8.52;;;;;;;0.00;94.06;102339.69;5102010;28;20426;-85
2023/12/18 10:17:51;;;;;;;17.10;8.88;;;;;;;-0.11;93.99;102341.63;5101179;28;20051;-86
2023/12/18 10:20:18;;;;;;;19.08;8.95;;;;;;;-0.11;93.74;102344.22;5107094;28;20044;-85
2023/12/18 10:22:44;;;;;;;17.23;8.10;;;;;;;-0.06;93.64;102342.81;5083130;28;20080;-88
2023/12/18 10:25:12;;;;;;;16.80;8.27;;;;;;;-0.18;93.18;102337.78;5074712;28;20036;-86
2023/12/18 10:27:39;;;;;;;19.42;8.85;;;;;;;-0.15;93.18;102326.75;5090327;28;20044;-86
2023/12/18 10:30:07;;;;;;;16.85;8.27;;;;;;;0.09;93.21;102321.25;5093335;28;20067;-86
2023/12/18 10:32:39;;;;;;;15.43;8.50;;;;;;;0.15;93.27;102312.16;5094643;28;20142;-87
2023/12/18 10:35:08;;;;;;;16.80;8.60;;;;;;;0.17;93.31;102310.56;5075313;28;20059;-86
2023/12/18 10:37:35;;;;;;;16.90;8.18;;;;;;;0.11;93.36;102314.47;5093303;28;20054;-86
2023/12/18 10:40:03;;;;;;;15.00;8.40;;;;;;;0.22;92.89;102307.34;5079077;28;20502;-87
2023/12/18 10:42:35;;;;;;;17.27;8.70;;;;;;;0.27;92.96;102305.91;5092342;28;20055;-86
2023/12/18 10:45:08;;;;;;;19.30;8.85;;;;;;;0.09;92.54;102295.44;5092092;28;20403;-86
2023/12/18 10:47:35;;;;;;;16.20;8.55;;;;;;;0.29;92.80;102294.88;5091399;28;20048;-86
2023/12/18 10:50:06;;;;;;;17.40;9.35;;;;;;;0.57;92.54;102301.59;5078100;28;20058;-86
2023/12/18 10:52:33;;;;;;;17.52;8.93;;;;;;;0.37;92.07;102299.59;5098082;28;20036;-86
2023/12/18 10:55:05;;;;;;;15.02;7.75;;;;;;;0.39;91.98;102296.28;5096690;28;20048;-86
2023/12/18 10:57:32;;;;;;;15.65;8.07;;;;;;;0.39;91.85;102291.13;5090131;28;20048;-86
2023/12/18 10:59:59;;;;;;;15.40;7.65;;;;;;;0.50;91.71;102299.47;5097177;28;20079;-86
2023/12/18 11:02:26;;;;;;;13.98;7.82;;;;;;;0.55;91.57;102304.88;5100963;28;20048;-85
2023/12/18 11:04:56;;;;;;;14.25;7.75;;;;;;;0.56;91.48;102289.47;5097192;28;20138;-86
2023/12/18 11:07:25;;;;;;;16.10;8.55;;;;;;;0.76;91.49;102287.97;5076222;28;20586;-85
2023/12/18 11:09:53;;;;;;;13.32;7.70;;;;;;;0.60;90.99;102286.25;5080254;28;20046;-86
2023/12/18 11:12:21;;;;;;;12.55;7.38;;;;;;;0.61;90.94;102293.22;5092359;28;20055;-86
2023/12/18 11:15:01;;;;;;;13.85;7.75;;;;;;;0.74;91.09;102288.69;5092389;28;20075;-86
2023/12/18 11:17:55;;;;;;;14.48;7.32;;;;;;;0.67;90.29;102278.03;5053258;28;20054;-85
2023/12/18 11:20:26;;;;;;;13.35;7.68;;;;;;;0.79;90.74;102282.09;5094118;28;20052;-86